Time;durP1;ratioP1;P1;durP2;ratioP2;P2;SDS_P1;SDS_P2;PMS_P1;PMS_P2;Temp;Humidity;BMP_temperature;BMP_pressure;BME280_temperature;BME280_humidity;BME280_pressure;Samples;Min_cycle;Max_cycle;Signal;HPM_P1;HPM_P2
2024/03/22 00:00:30;;;;;;;18.60;11.82;;;;;;;12.27;44.36;98963.59;4935726;29;20035;-77
2024/03/22 00:02:55;;;;;;;19.95;11.45;;;;;;;12.18;43.77;98947.78;4956265;29;20487;-76
2024/03/22 00:05:21;;;;;;;21.98;12.02;;;;;;;12.18;43.70;98964.31;4924142;29;20066;-77
2024/03/22 00:07:47;;;;;;;18.00;10.98;;;;;;;12.13;43.34;98956.81;4940063;29;20030;-76
2024/03/22 00:10:14;;;;;;;17.10;10.32;;;;;;;12.10;43.13;98959.69;4939542;29;20122;-76
2024/03/22 00:12:40;;;;;;;14.82;9.38;;;;;;;12.12;43.08;98967.41;4939819;29;20046;-76
2024/03/22 00:15:05;;;;;;;13.13;8.38;;;;;;;12.08;42.69;98961.59;4924028;29;20470;-76
2024/03/22 00:17:31;;;;;;;12.52;7.03;;;;;;;12.06;42.49;98960.88;4923873;29;20102;-76
2024/03/22 00:19:58;;;;;;;10.10;6.13;;;;;;;12.02;42.24;98975.16;4955922;29;20027;-76
2024/03/22 00:22:23;;;;;;;8.88;5.60;;;;;;;11.99;41.91;98969.34;4957328;28;20106;-76
2024/03/22 00:24:49;;;;;;;7.18;4.32;;;;;;;11.96;41.72;98970.41;4939604;29;20043;-76
2024/03/22 00:27:14;;;;;;;7.47;3.75;;;;;;;11.94;41.50;98965.28;4955498;29;20042;-76
2024/03/22 00:29:39;;;;;;;4.70;3.28;;;;;;;11.95;41.56;98968.72;4955523;29;20071;-77
2024/03/22 00:32:07;;;;;;;5.38;2.85;;;;;;;11.89;41.31;98964.78;4939426;29;20545;-77
2024/03/22 00:34:33;;;;;;;4.25;2.78;;;;;;;11.87;41.05;98961.44;4924541;29;20023;-76
2024/03/22 00:36:59;;;;;;;5.03;2.92;;;;;;;11.92;41.22;98971.59;4923469;29;20042;-77
2024/03/22 00:39:24;;;;;;;3.63;2.30;;;;;;;11.88;41.25;98973.59;4954973;29;20035;-77
2024/03/22 00:41:50;;;;;;;3.15;2.17;;;;;;;11.87;40.99;98965.84;4923473;29;20114;-77
2024/03/22 00:44:15;;;;;;;3.53;2.20;;;;;;;11.80;40.95;98965.50;4937663;28;20037;-77
2024/03/22 00:46:41;;;;;;;3.78;1.83;;;;;;;11.84;40.58;98968.72;4935690;29;20475;-77
2024/03/22 00:49:06;;;;;;;2.63;1.70;;;;;;;11.83;40.37;98977.50;4939266;29;20043;-76
2024/03/22 00:51:32;;;;;;;2.35;1.58;;;;;;;11.73;40.53;98964.31;4923546;29;20046;-78
2024/03/22 00:53:57;;;;;;;2.03;1.35;;;;;;;11.72;40.41;98968.72;4939050;29;20035;-77
2024/03/22 00:56:22;;;;;;;2.25;1.40;;;;;;;11.75;40.19;98973.72;4938998;29;20062;-77
2024/03/22 00:58:48;;;;;;;2.60;1.40;;;;;;;11.72;40.28;98973.94;4944608;28;20509;-77
2024/03/22 01:01:13;;;;;;;4.72;1.60;;;;;;;11.70;40.38;98965.41;4985300;28;20035;-77
2024/03/22 01:03:39;;;;;;;1.90;1.20;;;;;;;11.74;40.17;98979.06;4990431;28;20498;-77
2024/03/22 01:06:04;;;;;;;2.85;1.67;;;;;;;11.73;40.01;98986.06;4990436;28;20042;-75
2024/03/22 01:08:30;;;;;;;1.75;1.10;;;;;;;11.72;40.16;98981.78;4990200;28;20042;-75
2024/03/22 01:10:56;;;;;;;1.65;1.10;;;;;;;11.66;40.15;98984.88;4973651;28;20066;-78
2024/03/22 01:13:21;;;;;;;1.67;1.10;;;;;;;11.67;40.11;98983.09;4990042;28;20045;-78
2024/03/22 01:15:47;;;;;;;2.25;1.27;;;;;;;11.62;40.14;98975.59;4974296;28;20083;-78
2024/03/22 01:18:12;;;;;;;1.80;1.20;;;;;;;11.64;40.07;98981.56;4990323;28;20034;-77
2024/03/22 01:20:38;;;;;;;2.25;1.10;;;;;;;11.64;39.57;98984.16;4990213;28;20038;-77
2024/03/22 01:23:04;;;;;;;1.95;1.10;;;;;;;11.59;39.79;98981.91;4972812;28;20477;-76
2024/03/22 01:25:29;;;;;;;1.63;0.98;;;;;;;11.57;39.90;98977.72;4989700;28;20482;-76
2024/03/22 01:27:55;;;;;;;2.00;1.23;;;;;;;11.57;39.85;98977.72;4975069;28;20082;-77
2024/03/22 01:30:21;;;;;;;1.90;1.05;;;;;;;11.60;39.67;98980.09;4957570;28;20026;-77
2024/03/22 01:32:46;;;;;;;1.58;1.08;;;;;;;11.59;39.58;98981.03;4973690;28;20482;-77
2024/03/22 01:35:12;;;;;;;4.00;1.00;;;;;;;11.56;39.80;98982.13;4973224;28;20039;-76
2024/03/22 01:37:37;;;;;;;1.40;1.00;;;;;;;11.56;39.50;98982.13;4973193;28;20505;-76
2024/03/22 01:40:04;;;;;;;2.15;1.10;;;;;;;11.54;39.52;98976.19;4957438;28;20031;-76
2024/03/22 01:42:30;;;;;;;2.30;1.10;;;;;;;11.48;39.54;98960.13;4972849;28;20027;-76
2024/03/22 01:44:56;;;;;;;2.15;1.00;;;;;;;11.51;39.50;98980.81;4989290;28;20034;-77
2024/03/22 01:47:21;;;;;;;1.67;1.10;;;;;;;11.50;39.43;98976.56;4991505;28;20444;-77
2024/03/22 01:49:47;;;;;;;1.35;0.90;;;;;;;11.44;39.33;98966.56;4988732;28;20023;-77
2024/03/22 01:52:14;;;;;;;2.28;1.27;;;;;;;11.48;39.15;98976.66;4959575;28;20050;-85
2024/03/22 01:54:39;;;;;;;1.10;0.80;;;;;;;11.47;39.06;98974.16;4976503;28;20041;-76
2024/03/22 01:57:05;;;;;;;2.08;1.08;;;;;;;11.43;39.22;98970.09;4975958;28;20022;-78
2024/03/22 01:59:31;;;;;;;2.20;0.90;;;;;;;11.43;39.09;98965.69;4991944;28;20561;-77
2024/03/22 02:01:56;;;;;;;1.77;1.00;;;;;;;11.45;38.97;98973.44;4992432;28;20034;-77
2024/03/22 02:04:22;;;;;;;1.60;0.93;;;;;;;11.41;39.14;98972.84;4976218;28;20030;-76
2024/03/22 02:06:47;;;;;;;2.63;0.90;;;;;;;11.39;39.01;98975.56;4976010;28;20068;-77
2024/03/22 02:09:13;;;;;;;2.22;1.10;;;;;;;11.34;38.83;98974.28;4958693;28;20050;-77
2024/03/22 02:11:38;;;;;;;2.25;1.27;;;;;;;11.34;38.98;98976.88;4971460;28;20074;-77
2024/03/22 02:14:04;;;;;;;1.65;1.00;;;;;;;11.34;38.89;98982.13;4959736;28;20026;-77
2024/03/22 02:16:30;;;;;;;1.38;0.90;;;;;;;11.34;38.97;98987.34;4991516;28;20046;-76
2024/03/22 02:18:55;;;;;;;2.25;1.00;;;;;;;11.33;38.95;98990.88;4975654;28;20490;-76
2024/03/22 02:21:21;;;;;;;3.22;1.20;;;;;;;11.30;39.03;98986.72;4991981;28;20501;-76
2024/03/22 02:23:46;;;;;;;1.95;1.15;;;;;;;11.25;39.04;98982.81;4976034;28;20173;-76
2024/03/22 02:26:11;;;;;;;1.85;1.10;;;;;;;11.26;39.13;98984.44;4975185;28;20042;-76
2024/03/22 02:28:37;;;;;;;1.58;1.00;;;;;;;11.22;39.17;98973.41;4959560;28;20030;-76
2024/03/22 02:31:03;;;;;;;2.22;1.10;;;;;;;11.15;39.11;98974.81;4991702;28;20039;-78
2024/03/22 02:33:29;;;;;;;1.40;1.00;;;;;;;11.17;38.97;98984.19;4975851;28;20054;-76
2024/03/22 02:35:54;;;;;;;1.85;1.05;;;;;;;11.13;39.18;98980.16;4991527;28;20046;-76
2024/03/22 02:38:20;;;;;;;1.52;1.08;;;;;;;11.08;38.93;98976.22;4991510;28;20533;-75
2024/03/22 02:40:46;;;;;;;2.00;1.00;;;;;;;11.11;38.95;98994.28;4992445;28;20035;-78
2024/03/22 02:43:12;;;;;;;1.52;1.00;;;;;;;11.03;38.96;98987.00;4979915;28;20022;-76
2024/03/22 02:45:37;;;;;;;1.35;0.98;;;;;;;11.06;38.66;99006.84;4994345;28;20044;-76
2024/03/22 02:48:03;;;;;;;1.60;1.25;;;;;;;10.98;38.93;98995.19;4994334;28;20058;-76
2024/03/22 02:50:33;;;;;;;1.77;0.90;;;;;;;11.01;38.99;99005.41;4994089;28;20549;-76
2024/03/22 02:52:58;;;;;;;1.60;1.10;;;;;;;11.01;38.77;99015.03;4976404;28;20033;-77
2024/03/22 02:55:24;;;;;;;1.58;0.90;;;;;;;11.02;38.77;99019.28;4993079;28;20034;-76
2024/03/22 02:57:50;;;;;;;2.35;1.20;;;;;;;11.01;39.06;99022.88;4958844;28;20185;-76
2024/03/22 03:00:15;;;;;;;1.70;1.10;;;;;;;10.97;38.74;99018.81;4975201;28;20030;-77
2024/03/22 03:02:41;;;;;;;1.80;1.10;;;;;;;10.94;39.06;99019.88;4975491;28;20080;-76
2024/03/22 03:05:07;;;;;;;1.88;1.10;;;;;;;10.92;39.07;99015.69;4971259;28;20430;-76
2024/03/22 03:07:32;;;;;;;1.30;0.88;;;;;;;10.90;39.04;99013.19;4959263;28;20034;-76
2024/03/22 03:09:58;;;;;;;1.83;1.10;;;;;;;10.88;39.16;99015.09;4975607;28;20374;-76
2024/03/22 03:12:23;;;;;;;2.35;1.30;;;;;;;10.83;39.20;99004.13;4992804;28;20038;-77
2024/03/22 03:14:49;;;;;;;1.70;1.00;;;;;;;10.84;39.22;99004.03;4991438;28;20489;-77
2024/03/22 03:17:14;;;;;;;3.40;1.80;;;;;;;10.81;39.33;99012.06;4975140;28;20041;-76
2024/03/22 03:19:40;;;;;;;3.42;2.35;;;;;;;10.80;39.24;99009.56;4976625;28;20073;-77
2024/03/22 03:22:05;;;;;;;5.15;3.15;;;;;;;10.77;39.32;99008.03;4992087;28;20429;-76
2024/03/22 03:24:31;;;;;;;5.03;3.13;;;;;;;10.76;39.26;99006.38;4979163;28;20078;-77
2024/03/22 03:26:56;;;;;;;5.93;3.35;;;;;;;10.73;39.24;99008.38;4979297;28;20030;-77
2024/03/22 03:29:22;;;;;;;6.85;4.10;;;;;;;10.71;39.10;99008.47;4978992;28;20117;-77
2024/03/22 03:31:48;;;;;;;7.60;4.00;;;;;;;10.68;38.93;99013.94;4963339;28;20125;-77
2024/03/22 03:34:14;;;;;;;7.22;4.15;;;;;;;10.65;39.08;99017.59;4995331;28;20486;-77
2024/03/22 03:36:39;;;;;;;6.07;3.63;;;;;;;10.58;39.03;99012.91;4978968;28;20062;-76
2024/03/22 03:39:05;;;;;;;6.53;3.97;;;;;;;10.60;38.94;99022.31;4978474;28;20124;-77
2024/03/22 03:41:30;;;;;;;7.32;3.97;;;;;;;10.58;38.70;99026.81;4978526;28;20057;-76
2024/03/22 03:43:56;;;;;;;6.10;3.55;;;;;;;10.56;38.88;99020.84;4978452;28;20027;-76
2024/03/22 03:46:21;;;;;;;6.22;3.40;;;;;;;10.56;38.95;99020.03;4978144;28;20129;-76
2024/03/22 03:48:47;;;;;;;5.45;3.28;;;;;;;10.53;39.07;99015.88;4995897;28;20061;-76
2024/03/22 03:51:12;;;;;;;5.13;2.95;;;;;;;10.49;38.88;99012.63;4994763;28;20109;-75
2024/03/22 03:53:38;;;;;;;4.40;2.60;;;;;;;10.45;38.95;99005.97;4978848;28;20046;-76
2024/03/22 03:56:03;;;;;;;4.60;2.83;;;;;;;10.38;39.08;99003.91;4978466;28;20533;-76
2024/03/22 03:58:29;;;;;;;3.80;2.40;;;;;;;10.42;38.77;99021.00;4994658;28;20038;-78
2024/03/22 04:00:54;;;;;;;3.42;2.20;;;;;;;10.39;38.89;99029.03;4978456;28;20033;-77
2024/03/22 04:03:20;;;;;;;3.65;2.10;;;;;;;10.36;38.81;99022.28;4962321;28;20422;-78
2024/03/22 04:05:45;;;;;;;2.83;1.90;;;;;;;10.30;38.76;99020.06;4990142;28;20417;-77
2024/03/22 04:08:11;;;;;;;3.30;1.90;;;;;;;10.34;38.69;99033.75;4978126;28;20092;-77
2024/03/22 04:10:36;;;;;;;3.90;1.60;;;;;;;10.35;38.81;99041.50;4994413;28;20071;-77
2024/03/22 04:13:02;;;;;;;2.72;1.80;;;;;;;10.33;38.51;99040.78;4978116;28;20065;-77
2024/03/22 04:15:27;;;;;;;4.25;1.45;;;;;;;10.34;38.44;99039.81;4978336;28;20030;-77
2024/03/22 04:17:56;;;;;;;2.38;1.40;;;;;;;10.37;38.29;99046.59;4994668;28;20026;-76
2024/03/22 04:20:21;;;;;;;2.80;1.40;;;;;;;10.37;38.41;99050.03;4978122;28;20509;-77
2024/03/22 04:22:49;;;;;;;2.55;1.40;;;;;;;10.77;37.81;99047.22;4977811;28;20078;-78
2024/03/22 04:25:15;;;;;;;2.60;1.40;;;;;;;11.28;36.87;99048.72;4977862;28;20088;-79
2024/03/22 04:27:40;;;;;;;2.17;1.50;;;;;;;11.75;36.16;99051.34;4993436;28;20034;-78
2024/03/22 04:30:06;;;;;;;2.15;1.27;;;;;;;12.22;35.25;99057.31;4994238;28;20037;-78
2024/03/22 04:32:32;;;;;;;2.30;1.40;;;;;;;12.66;34.48;99063.44;4960967;28;20045;-77
2024/03/22 04:34:57;;;;;;;2.95;1.20;;;;;;;13.24;33.52;99067.56;4961657;28;20418;-78
2024/03/22 04:37:23;;;;;;;3.03;1.30;;;;;;;13.83;32.58;99066.19;4994385;28;20030;-78
2024/03/22 04:39:49;;;;;;;1.92;1.13;;;;;;;14.52;31.36;99072.56;4973556;28;20026;-76
2024/03/22 04:42:15;;;;;;;1.52;1.10;;;;;;;15.17;30.24;99072.97;4993851;28;20096;-71
2024/03/22 04:44:41;;;;;;;2.25;1.20;;;;;;;15.89;29.38;99078.72;4977384;28;20065;-71
2024/03/22 04:47:06;;;;;;;1.35;0.95;;;;;;;16.48;28.45;99080.28;4977093;28;20057;-72
2024/03/22 04:49:32;;;;;;;2.08;1.27;;;;;;;17.13;27.80;99077.56;4993615;28;20026;-72
2024/03/22 04:51:57;;;;;;;5.00;1.13;;;;;;;17.77;37.06;99086.16;4977218;28;20046;-72
2024/03/22 04:54:23;;;;;;;9.68;1.30;;;;;;;18.68;32.59;99092.75;4994788;28;20034;-72
2024/03/22 04:56:49;;;;;;;2.00;1.30;;;;;;;19.24;30.31;99100.97;4993492;28;20026;-72
2024/03/22 04:59:16;;;;;;;4.25;1.20;;;;;;;19.74;28.29;99090.41;4991302;28;20093;-76
2024/03/22 05:01:44;;;;;;;1.65;1.10;;;;;;;20.09;26.48;99083.09;4976703;28;20449;-72
2024/03/22 05:04:09;;;;;;;1.60;1.20;;;;;;;20.48;25.20;99091.06;4977438;28;20031;-73
2024/03/22 05:06:35;;;;;;;3.50;1.02;;;;;;;21.02;24.10;99095.63;4992510;28;20053;-72
2024/03/22 05:09:00;;;;;;;3.65;1.10;;;;;;;21.65;22.95;99095.50;4976487;28;20053;-74
2024/03/22 05:11:26;;;;;;;2.55;1.10;;;;;;;22.41;25.67;99087.44;4977532;28;20464;-73
2024/03/22 05:13:51;;;;;;;1.98;1.15;;;;;;;22.86;24.67;99085.50;4977200;28;20035;-72
2024/03/22 05:16:17;;;;;;;8.80;1.10;;;;;;;23.40;23.94;99094.03;4993293;28;20542;-74
2024/03/22 05:18:43;;;;;;;2.22;1.10;;;;;;;24.02;24.46;99090.66;4977239;28;20041;-73
2024/03/22 05:21:09;;;;;;;1.33;0.90;;;;;;;24.49;22.47;99084.72;4960750;28;20041;-73
2024/03/22 05:23:34;;;;;;;3.25;0.82;;;;;;;24.84;21.46;99092.69;4977082;28;20486;-72
2024/03/22 05:25:59;;;;;;;3.22;1.15;;;;;;;25.08;20.64;99089.47;4977135;28;20031;-76
2024/03/22 05:28:27;;;;;;;3.08;0.90;;;;;;;25.41;19.78;99087.88;4977806;28;20030;-79
2024/03/22 05:30:52;;;;;;;1.30;0.77;;;;;;;25.74;23.60;99093.22;4966684;28;20045;-74
2024/03/22 05:33:18;;;;;;;3.80;1.02;;;;;;;26.07;19.33;99091.56;4976847;28;20038;-74
2024/03/22 05:35:43;;;;;;;2.92;1.10;;;;;;;26.20;18.70;99101.41;4992841;28;20042;-76
2024/03/22 05:38:09;;;;;;;2.30;0.80;;;;;;;26.31;17.61;99092.72;4975993;28;20034;-75
2024/03/22 05:40:38;;;;;;;1.60;1.10;;;;;;;26.36;16.78;99098.25;4976339;28;20038;-74
2024/03/22 05:43:04;;;;;;;1.35;0.80;;;;;;;26.36;16.35;99098.25;4959549;28;20048;-75
2024/03/22 05:45:29;;;;;;;2.63;0.90;;;;;;;26.43;16.12;99106.28;4976328;28;20039;-74
2024/03/22 05:47:55;;;;;;;1.83;1.10;;;;;;;26.43;16.27;99108.97;4991782;28;20058;-74
2024/03/22 05:50:20;;;;;;;4.63;1.08;;;;;;;26.44;15.63;99114.09;4975956;28;20042;-74
2024/03/22 05:52:46;;;;;;;1.67;0.85;;;;;;;26.57;15.79;99112.41;4992045;28;20497;-74
2024/03/22 05:55:11;;;;;;;2.05;1.02;;;;;;;26.59;15.99;99115.69;4992470;28;20081;-74
2024/03/22 05:57:36;;;;;;;1.50;0.90;;;;;;;26.69;15.54;99097.34;4992639;28;20040;-74
2024/03/22 06:00:02;;;;;;;1.73;0.93;;;;;;;26.87;15.74;99115.41;4992388;28;20033;-74
2024/03/22 06:02:28;;;;;;;1.60;0.90;;;;;;;27.03;15.48;99120.25;4992535;28;20030;-74
2024/03/22 06:04:53;;;;;;;1.33;0.80;;;;;;;27.14;15.31;99124.09;4976239;28;20085;-74
2024/03/22 06:07:19;;;;;;;3.83;0.90;;;;;;;27.36;15.22;99134.53;4992206;28;20399;-76
2024/03/22 06:09:47;;;;;;;1.13;0.80;;;;;;;27.58;15.06;99134.97;4975712;28;20053;-88
2024/03/22 06:12:13;;;;;;;1.10;0.65;;;;;;;27.75;14.99;99132.56;4992163;28;20038;-75
2024/03/22 06:14:46;;;;;;;1.20;0.85;;;;;;;27.92;14.97;99130.94;4993352;28;20500;-75
2024/03/22 06:17:12;;;;;;;1.88;0.80;;;;;;;28.19;15.11;99124.53;4960560;28;20026;-75
2024/03/22 06:19:37;;;;;;;1.20;0.85;;;;;;;28.34;15.16;99122.31;4975794;28;20116;-75
2024/03/22 06:22:03;;;;;;;2.22;0.80;;;;;;;28.47;15.10;99124.03;4975673;28;20117;-75
2024/03/22 06:24:29;;;;;;;3.25;0.70;;;;;;;28.55;14.77;99115.66;4975848;28;20034;-75
2024/03/22 06:26:54;;;;;;;1.90;0.90;;;;;;;28.81;14.79;99127.16;4992097;28;20042;-75
2024/03/22 06:29:20;;;;;;;2.83;1.00;;;;;;;28.90;14.22;99123.09;4959724;28;20121;-74
2024/03/22 06:31:46;;;;;;;1.73;0.73;;;;;;;29.02;22.67;99123.16;4975256;28;20137;-78
2024/03/22 06:34:11;;;;;;;2.03;1.00;;;;;;;29.09;22.73;99129.25;4975729;28;20058;-78
2024/03/22 06:36:37;;;;;;;1.38;0.80;;;;;;;29.10;22.91;99140.81;4992256;28;20568;-79
2024/03/22 06:39:06;;;;;;;4.88;1.00;;;;;;;29.08;20.53;99145.59;4992225;28;20026;-79
2024/03/22 06:41:32;;;;;;;4.10;1.30;;;;;;;29.00;19.70;99139.50;4976405;28;20395;-79
2024/03/22 06:43:57;;;;;;;5.97;1.20;;;;;;;29.03;19.97;99141.75;4991455;28;20037;-83
2024/03/22 06:46:23;;;;;;;4.50;1.10;;;;;;;29.08;21.33;99138.34;4979127;28;20034;-84
2024/03/22 06:48:48;;;;;;;2.67;0.93;;;;;;;29.16;21.23;99143.44;4991187;28;20050;-75
2024/03/22 06:51:14;;;;;;;4.82;1.20;;;;;;;29.27;21.22;99149.91;4975395;28;20061;-76
2024/03/22 06:53:41;;;;;;;3.30;1.05;;;;;;;29.40;20.60;99148.91;4975276;28;20038;-84
2024/03/22 06:56:08;;;;;;;6.18;1.40;;;;;;;29.55;20.99;99141.19;4975596;28;20038;-78
2024/03/22 06:58:38;;;;;;;2.67;1.05;;;;;;;29.75;20.49;99143.56;4992321;28;20101;-76
2024/03/22 07:01:03;;;;;;;5.68;1.88;;;;;;;29.83;20.25;99144.31;4958195;28;20034;-74
2024/03/22 07:03:29;;;;;;;2.05;1.30;;;;;;;29.86;20.28;99139.28;4975039;28;20045;-77
2024/03/22 07:05:55;;;;;;;3.17;1.50;;;;;;;29.94;19.77;99132.72;4991155;28;20038;-78
2024/03/22 07:08:20;;;;;;;4.15;1.65;;;;;;;29.99;20.29;99134.72;4991112;28;20061;-76
2024/03/22 07:10:46;;;;;;;5.10;1.40;;;;;;;30.06;20.23;99138.09;4975380;28;20030;-76
2024/03/22 07:13:11;;;;;;;3.08;1.30;;;;;;;30.19;20.42;99145.94;4975395;28;20066;-76
2024/03/22 07:15:37;;;;;;;4.38;1.52;;;;;;;30.34;20.32;99145.44;4975196;28;20027;-76
2024/03/22 07:18:03;;;;;;;5.07;1.70;;;;;;;30.48;19.77;99151.44;4991485;28;20030;-77
2024/03/22 07:20:28;;;;;;;5.78;2.08;;;;;;;30.58;19.73;99140.84;4961934;28;20081;-77
2024/03/22 07:22:54;;;;;;;3.92;2.38;;;;;;;30.72;18.60;99137.91;4955714;28;20046;-77
2024/03/22 07:25:19;;;;;;;4.75;2.17;;;;;;;30.94;17.68;99140.75;4956647;28;20030;-78
2024/03/22 07:27:46;;;;;;;4.30;2.70;;;;;;;31.21;17.87;99144.50;4956567;28;20117;-82
2024/03/22 07:30:11;;;;;;;9.38;6.90;;;;;;;31.52;17.16;99139.66;4940103;28;20054;-87
2024/03/22 07:32:37;;;;;;;6.68;4.30;;;;;;;31.77;16.68;99145.72;4940248;28;20031;-80
2024/03/22 07:35:03;;;;;;;6.85;4.93;;;;;;;32.10;15.85;99136.78;4973249;28;20023;-80
2024/03/22 07:37:28;;;;;;;6.70;4.22;;;;;;;32.61;14.88;99128.56;4940322;28;20105;-78
2024/03/22 07:39:54;;;;;;;6.90;4.40;;;;;;;33.16;13.98;99138.34;4939541;28;20496;-80
2024/03/22 07:42:21;;;;;;;6.93;3.80;;;;;;;33.90;13.18;99133.31;4938978;28;20026;-79
2024/03/22 07:44:46;;;;;;;4.13;3.25;;;;;;;34.79;12.28;99137.03;4954461;28;20122;-78
2024/03/22 07:47:12;;;;;;;5.38;3.28;;;;;;;35.79;11.45;99134.19;4929172;28;20035;-78
2024/03/22 07:49:37;;;;;;;5.20;3.33;;;;;;;36.14;11.32;99136.00;4954613;28;20063;-80
2024/03/22 07:52:04;;;;;;;4.95;2.78;;;;;;;37.03;10.72;99134.56;4940698;28;20082;-80
2024/03/22 07:54:29;;;;;;;3.70;2.07;;;;;;;38.17;9.87;99130.59;4957769;28;20510;-87
2024/03/22 07:56:55;;;;;;;5.30;2.13;;;;;;;39.10;9.21;99134.06;4955642;28;20047;-77
2024/03/22 07:59:20;;;;;;;3.03;1.80;;;;;;;39.58;8.70;99142.88;4954414;28;20054;-84
2024/03/22 08:01:46;;;;;;;4.23;1.93;;;;;;;40.04;8.36;99138.47;4973402;28;20164;-79
2024/03/22 08:04:12;;;;;;;5.13;1.40;;;;;;;39.47;8.87;99140.56;4974102;28;20050;-77
2024/03/22 08:06:37;;;;;;;3.45;1.60;;;;;;;38.25;9.42;99140.03;4975164;28;20092;-77
2024/03/22 08:09:03;;;;;;;4.55;2.00;;;;;;;36.99;10.10;99138.91;4983893;28;20028;-78
2024/03/22 08:11:28;;;;;;;4.63;1.67;;;;;;;35.71;10.85;99140.94;4945487;28;20042;-78
2024/03/22 08:14:01;;;;;;;3.15;1.60;;;;;;;34.78;11.32;99148.16;4961876;28;20026;-80
2024/03/22 08:16:27;;;;;;;2.70;1.60;;;;;;;34.25;11.95;99149.00;4962885;28;20113;-77
2024/03/22 08:18:52;;;;;;;2.83;1.50;;;;;;;33.67;12.46;99146.13;4961726;28;20133;-77
2024/03/22 08:21:18;;;;;;;5.72;1.60;;;;;;;33.28;12.62;99142.81;4961369;28;20446;-77
2024/03/22 08:23:43;;;;;;;5.93;1.90;;;;;;;32.89;12.68;99134.81;4945744;28;20494;-77
2024/03/22 08:26:09;;;;;;;2.33;1.60;;;;;;;32.58;13.24;99140.66;4945946;28;20065;-81
2024/03/22 08:28:34;;;;;;;4.35;1.63;;;;;;;32.34;12.97;99145.50;4961315;28;20034;-77
2024/03/22 08:31:04;;;;;;;2.17;1.35;;;;;;;32.15;13.36;99142.28;4946340;28;20045;-78
2024/03/22 08:33:29;;;;;;;2.60;1.40;;;;;;;32.05;13.50;99145.59;4945654;28;20042;-82
2024/03/22 08:35:55;;;;;;;7.78;1.70;;;;;;;31.65;14.04;99138.53;4945869;28;20117;-80
2024/03/22 08:38:20;;;;;;;3.10;1.45;;;;;;;31.69;14.41;99130.75;4945461;28;20031;-82
2024/03/22 08:40:46;;;;;;;4.25;1.70;;;;;;;31.77;14.47;99146.56;4945430;28;20165;-76
2024/03/22 08:43:11;;;;;;;2.53;1.67;;;;;;;31.69;14.20;99138.84;4961759;28;20034;-77
2024/03/22 08:45:37;;;;;;;4.22;1.52;;;;;;;31.56;14.22;99135.44;4945939;28;20101;-78
2024/03/22 08:48:03;;;;;;;7.57;1.58;;;;;;;31.52;14.46;99136.97;4974262;28;20434;-80
2024/03/22 08:50:29;;;;;;;4.10;1.70;;;;;;;31.43;13.97;99132.22;4942541;28;20413;-78
2024/03/22 08:52:54;;;;;;;2.58;1.70;;;;;;;31.49;13.33;99139.34;4958407;28;20050;-77
2024/03/22 08:55:20;;;;;;;2.28;1.50;;;;;;;31.39;13.94;99137.25;4958580;28;20453;-77
2024/03/22 08:57:45;;;;;;;2.55;1.58;;;;;;;31.28;13.83;99132.75;4958218;28;20034;-77
2024/03/22 09:00:11;;;;;;;6.78;1.30;;;;;;;31.23;13.68;99136.19;4959048;28;20034;-76
2024/03/22 09:02:38;;;;;;;3.05;1.30;;;;;;;31.13;13.97;99141.41;4958511;28;20090;-76
2024/03/22 09:05:04;;;;;;;2.58;1.10;;;;;;;31.30;14.36;99128.75;4959091;28;20041;-75
2024/03/22 09:07:30;;;;;;;3.42;1.35;;;;;;;31.33;13.73;99130.16;4974172;28;20031;-75
2024/03/22 09:09:55;;;;;;;2.13;1.15;;;;;;;31.32;13.72;99123.13;4942120;28;20398;-77
2024/03/22 09:12:21;;;;;;;2.22;1.30;;;;;;;31.31;13.93;99124.19;4941901;28;20109;-77
2024/03/22 09:14:46;;;;;;;2.08;1.27;;;;;;;31.16;13.69;99120.16;4958114;28;20045;-76
2024/03/22 09:17:12;;;;;;;2.35;1.30;;;;;;;31.03;13.52;99123.97;4941897;28;20038;-77
2024/03/22 09:19:37;;;;;;;5.68;1.20;;;;;;;30.89;13.73;99119.91;4973746;28;20035;-76
2024/03/22 09:22:03;;;;;;;2.00;1.30;;;;;;;30.80;13.29;99116.78;4957679;28;20109;-76
2024/03/22 09:24:29;;;;;;;4.18;1.60;;;;;;;30.74;13.44;99112.38;4973926;28;20098;-77
2024/03/22 09:26:54;;;;;;;1.75;1.35;;;;;;;30.56;13.99;99110.66;4957648;28;20029;-77
2024/03/22 09:29:19;;;;;;;4.00;1.30;;;;;;;30.44;13.73;99113.41;4942074;28;20069;-77
2024/03/22 09:31:45;;;;;;;2.50;1.50;;;;;;;30.38;13.89;99119.72;4941555;28;20101;-76
2024/03/22 09:34:12;;;;;;;1.83;1.40;;;;;;;30.11;13.63;99097.84;4974868;28;20034;-76
2024/03/22 09:36:39;;;;;;;2.72;1.48;;;;;;;30.00;13.86;99115.66;4941216;28;20039;-77
2024/03/22 09:39:04;;;;;;;2.10;1.60;;;;;;;29.74;13.78;99104.25;4941452;28;20102;-77
2024/03/22 09:41:31;;;;;;;5.32;1.60;;;;;;;29.61;14.03;99109.06;4957861;28;20030;-78
2024/03/22 09:43:58;;;;;;;5.53;1.60;;;;;;;29.42;14.32;99101.88;4957329;28;20026;-77
2024/03/22 09:46:24;;;;;;;6.45;1.60;;;;;;;29.19;14.33;99099.16;4957501;28;20039;-76
2024/03/22 09:48:49;;;;;;;7.30;1.70;;;;;;;29.12;14.88;99103.78;4941234;28;20058;-77
2024/03/22 09:51:16;;;;;;;2.65;2.03;;;;;;;29.09;14.98;99104.25;4957212;28;20069;-75
2024/03/22 09:53:45;;;;;;;3.35;2.45;;;;;;;29.02;14.85;99096.28;4940582;28;20043;-75
2024/03/22 09:56:13;;;;;;;4.03;2.28;;;;;;;28.80;15.07;99098.66;4957711;28;20027;-75
2024/03/22 09:58:39;;;;;;;2.83;1.90;;;;;;;28.73;15.24;99104.09;4957609;28;20121;-75
2024/03/22 10:01:05;;;;;;;2.40;1.70;;;;;;;28.58;15.04;99091.06;4957229;28;20077;-76
2024/03/22 10:03:30;;;;;;;2.45;1.58;;;;;;;28.17;14.76;99095.25;4941656;28;20038;-76
2024/03/22 10:05:56;;;;;;;6.03;1.63;;;;;;;28.00;15.01;99089.63;4956681;28;20069;-81
2024/03/22 10:08:21;;;;;;;2.35;1.58;;;;;;;27.94;14.96;99096.72;4956707;28;20038;-78
2024/03/22 10:10:47;;;;;;;2.65;1.40;;;;;;;27.89;15.12;99088.47;4940985;28;20047;-78
2024/03/22 10:13:12;;;;;;;2.10;1.30;;;;;;;27.84;15.77;99080.28;4956468;28;20046;-76
2024/03/22 10:15:38;;;;;;;2.65;1.63;;;;;;;27.82;15.75;99078.84;4941056;28;20419;-76
2024/03/22 10:18:04;;;;;;;2.53;1.50;;;;;;;27.69;15.48;99077.94;4940883;28;20073;-76
2024/03/22 10:20:29;;;;;;;2.22;1.35;;;;;;;27.60;15.31;99076.59;4940796;28;20050;-76
2024/03/22 10:22:56;;;;;;;2.33;1.50;;;;;;;27.42;15.55;99078.16;4956974;28;20077;-76
2024/03/22 10:25:23;;;;;;;3.10;1.60;;;;;;;27.44;15.28;99067.22;4956664;28;20493;-76
2024/03/22 10:27:48;;;;;;;3.80;1.75;;;;;;;27.29;15.52;99061.34;4956763;28;20045;-76
2024/03/22 10:30:16;;;;;;;3.50;1.60;;;;;;;27.15;15.66;99056.09;4940283;28;20038;-77
2024/03/22 10:32:42;;;;;;;4.00;1.63;;;;;;;27.03;15.85;99064.00;4957154;28;20027;-78
2024/03/22 10:35:08;;;;;;;4.32;1.50;;;;;;;26.64;15.72;99054.31;4940588;28;20065;-77
2024/03/22 10:37:33;;;;;;;4.30;1.50;;;;;;;26.40;15.13;99043.28;4940607;28;20031;-76
2024/03/22 10:40:11;;;;;;;3.58;1.60;;;;;;;26.30;15.89;99046.44;4956764;28;20031;-75
2024/03/22 10:42:40;;;;;;;2.47;1.60;;;;;;;26.17;16.03;99039.28;4942823;28;20457;-77
2024/03/22 10:45:07;;;;;;;4.70;2.00;;;;;;;26.10;16.53;99027.75;4956781;28;20045;-75
2024/03/22 10:47:33;;;;;;;2.78;1.95;;;;;;;25.98;16.63;99014.22;4939265;28;20050;-78
2024/03/22 10:50:05;;;;;;;3.83;1.55;;;;;;;25.96;16.31;99018.09;4940183;28;20026;-76
2024/03/22 10:52:33;;;;;;;6.20;1.63;;;;;;;25.89;16.54;99022.66;4956851;28;20057;-75
2024/03/22 10:54:58;;;;;;;;;;;;;;;25.77;16.56;99017.94;4972567;28;20070;-76
2024/03/22 10:57:24;;;;;;;3.38;1.80;;;;;;;25.70;16.70;99016.34;4972019;28;19953;-76
2024/03/22 10:59:49;;;;;;;2.72;1.48;;;;;;;25.57;17.20;99012.66;4956266;28;20066;-75
2024/03/22 11:02:15;;;;;;;3.33;1.65;;;;;;;25.52;17.34;99008.94;4940876;28;20034;-76
2024/03/22 11:04:40;;;;;;;3.72;1.92;;;;;;;25.42;17.18;99004.84;4940058;28;20482;-76
2024/03/22 11:07:06;;;;;;;2.72;1.50;;;;;;;25.35;17.26;99005.88;4939865;28;20042;-78
2024/03/22 11:09:31;;;;;;;3.95;1.42;;;;;;;25.13;17.07;99002.56;4940045;28;20039;-77
2024/03/22 11:11:58;;;;;;;3.33;1.58;;;;;;;24.97;17.22;99001.94;4939918;28;20035;-77
2024/03/22 11:14:24;;;;;;;1.95;1.40;;;;;;;24.79;17.06;98994.50;4940579;28;20121;-77
2024/03/22 11:16:50;;;;;;;4.38;1.40;;;;;;;24.60;17.28;98988.13;4940246;28;20479;-76
2024/03/22 11:19:16;;;;;;;4.97;1.33;;;;;;;24.42;17.52;98996.66;4955977;28;20097;-76
2024/03/22 11:21:41;;;;;;;4.65;1.38;;;;;;;24.25;18.14;98985.53;4956152;28;20031;-75
2024/03/22 11:24:07;;;;;;;3.13;1.30;;;;;;;24.16;17.88;98986.72;4940165;28;20478;-76
2024/03/22 11:26:33;;;;;;;3.47;1.20;;;;;;;23.99;17.68;98976.41;4955848;28;20081;-76